Time;durP1;ratioP1;P1;durP2;ratioP2;P2;SDS_P1;SDS_P2;PMS_P1;PMS_P2;Temp;Humidity;BMP_temperature;BMP_pressure;BME280_temperature;BME280_humidity;BME280_pressure;Samples;Min_cycle;Max_cycle;Signal;HPM_P1;HPM_P2
2022/11/04 00:01:45;;;;;;;10.90;7.88;;;10.90;99.90;;;;;;5080182;28;20176;-76
2022/11/04 00:04:13;;;;;;;10.68;7.88;;;10.80;99.90;;;;;;5073670;28;20661;-76
2022/11/04 00:06:39;;;;;;;10.15;7.13;;;10.80;99.90;;;;;;5079583;28;20576;-76
2022/11/04 00:09:07;;;;;;;8.85;7.95;;;10.80;99.90;;;;;;5076258;28;20175;-78
2022/11/04 00:14:17;;;;;;;9.82;7.22;;;10.80;99.90;;;;;;5074917;28;20215;-76
2022/11/04 00:19:27;;;;;;;10.20;7.68;;;10.80;99.90;;;;;;5074959;28;20187;-77
2022/11/04 00:29:53;;;;;;;8.20;7.40;;;10.70;99.90;;;;;;5073025;28;20186;-77
2022/11/04 00:35:04;;;;;;;8.85;7.95;;;10.60;99.90;;;;;;5073445;28;20257;-76
2022/11/04 00:37:30;;;;;;;14.00;8.20;;;10.60;99.90;;;;;;5062424;28;20208;-75
2022/11/04 00:39:55;;;;;;;10.07;7.78;;;10.60;99.90;;;;;;5074515;28;20235;-75
2022/11/04 00:42:21;;;;;;;10.50;7.55;;;10.50;99.90;;;;;;5069023;28;20674;-76
2022/11/04 00:44:47;;;;;;;10.60;8.10;;;10.40;99.90;;;;;;5074177;28;20205;-75
2022/11/04 00:47:12;;;;;;;8.55;7.57;;;10.50;99.90;;;;;;5072894;28;20222;-75
2022/11/04 00:49:38;;;;;;;8.15;7.25;;;10.50;99.90;;;;;;5070823;28;20172;-76
2022/11/04 00:52:04;;;;;;;9.02;7.68;;;10.50;99.90;;;;;;5074260;28;20662;-75
2022/11/04 00:54:30;;;;;;;9.48;7.93;;;10.50;99.90;;;;;;5071732;28;20198;-75
2022/11/04 00:56:55;;;;;;;9.23;8.13;;;10.50;99.90;;;;;;5078120;28;20194;-78
2022/11/04 00:59:21;;;;;;;8.38;7.45;;;10.50;99.90;;;;;;5072451;28;20183;-75
2022/11/04 01:01:46;;;;;;;9.13;7.60;;;10.50;99.90;;;;;;5072412;28;20645;-75
2022/11/04 01:04:13;;;;;;;9.20;7.90;;;10.50;99.90;;;;;;5067452;28;20250;-76
2022/11/04 01:06:39;;;;;;;9.45;8.55;;;10.60;99.90;;;;;;5079915;28;20207;-76
2022/11/04 01:09:07;;;;;;;7.85;7.18;;;10.60;99.90;;;;;;5069692;28;20205;-75
2022/11/04 01:11:33;;;;;;;10.40;8.13;;;10.60;99.90;;;;;;5069493;28;20180;-77
2022/11/04 01:13:59;;;;;;;9.27;8.30;;;10.60;99.90;;;;;;5073610;28;20174;-76
2022/11/04 01:16:25;;;;;;;12.18;9.90;;;10.70;99.90;;;;;;5072994;28;20204;-76
2022/11/04 01:18:51;;;;;;;11.80;8.95;;;10.80;99.90;;;;;;5073931;28;20616;-76
2022/11/04 01:21:17;;;;;;;10.65;9.07;;;10.80;99.90;;;;;;5073902;28;20206;-76
2022/11/04 01:23:43;;;;;;;12.30;9.77;;;10.90;99.90;;;;;;5067667;28;20199;-76
2022/11/04 01:26:15;;;;;;;10.35;8.88;;;11.00;99.90;;;;;;5070918;28;20551;-75
2022/11/04 01:28:40;;;;;;;13.18;10.68;;;11.00;99.90;;;;;;5065403;28;20546;-76
2022/11/04 01:31:12;;;;;;;10.68;8.55;;;10.90;99.90;;;;;;5071542;28;20179;-75
2022/11/04 01:33:38;;;;;;;13.55;9.88;;;10.80;99.90;;;;;;5068782;28;20179;-75
2022/11/04 01:36:05;;;;;;;11.13;9.75;;;10.70;99.90;;;;;;5071412;28;20218;-76
2022/11/04 01:38:30;;;;;;;11.00;9.18;;;10.60;99.90;;;;;;5069728;28;20256;-75
2022/11/04 01:40:56;;;;;;;11.57;10.10;;;10.60;99.90;;;;;;5066904;28;20178;-76
2022/11/04 01:43:22;;;;;;;11.13;9.70;;;10.60;99.90;;;;;;5076815;28;20213;-76
2022/11/04 01:45:55;;;;;;;13.88;11.18;;;10.60;99.90;;;;;;5073391;28;20657;-76
2022/11/04 01:48:28;;;;;;;12.30;10.57;;;10.50;99.90;;;;;;5076912;28;20241;-75
2022/11/04 01:50:55;;;;;;;12.15;10.10;;;10.50;99.90;;;;;;5068518;28;20650;-75
2022/11/04 01:53:34;;;;;;;15.48;10.90;;;10.50;99.90;;;;;;5074276;28;20667;-75
2022/11/04 01:56:10;;;;;;;13.57;11.23;;;10.40;99.90;;;;;;5071666;28;20248;-75
2022/11/04 01:58:37;;;;;;;12.10;10.90;;;10.50;99.90;;;;;;5072895;28;20241;-75
2022/11/04 02:01:03;;;;;;;16.63;11.73;;;10.40;99.90;;;;;;5064776;28;20180;-75
2022/11/04 02:03:37;;;;;;;14.77;12.32;;;10.50;99.90;;;;;;5066814;28;20260;-74
2022/11/04 02:06:04;;;;;;;14.77;11.65;;;10.50;99.90;;;;;;5062692;28;20203;-76
2022/11/04 02:08:30;;;;;;;13.07;11.45;;;10.60;99.90;;;;;;5067610;28;20234;-75
2022/11/04 02:11:01;;;;;;;15.82;11.23;;;10.50;99.90;;;;;;5066776;28;20182;-76
2022/11/04 02:13:29;;;;;;;15.25;13.00;;;10.60;99.90;;;;;;5063842;28;20209;-75
2022/11/04 02:16:07;;;;;;;14.57;12.15;;;10.60;99.90;;;;;;5061940;28;20689;-75
2022/11/04 02:19:09;;;;;;;16.85;12.02;;;10.50;99.90;;;;;;5056584;28;20201;-76
2022/11/04 02:22:05;;;;;;;16.38;11.43;;;10.30;99.90;;;;;;5061761;28;20230;-76
2022/11/04 02:25:04;;;;;;;13.30;11.20;;;10.40;99.90;;;;;;5062624;28;20179;-76
2022/11/04 02:27:55;;;;;;;13.07;11.02;;;10.40;99.90;;;;;;5060261;28;20299;-75
2022/11/04 02:30:21;;;;;;;14.93;12.05;;;10.40;99.90;;;;;;5059272;28;20168;-76
2022/11/04 02:32:56;;;;;;;13.77;11.35;;;10.40;99.90;;;;;;5066777;28;20641;-76
2022/11/04 02:35:49;;;;;;;15.30;11.50;;;10.50;99.90;;;;;;5065358;28;20186;-76
2022/11/04 02:38:30;;;;;;;18.15;12.05;;;10.50;99.90;;;;;;5047010;28;20195;-76
2022/11/04 02:41:10;;;;;;;18.70;12.45;;;10.50;99.90;;;;;;5062863;28;20213;-76
2022/11/04 02:44:08;;;;;;;11.93;10.48;;;10.40;99.90;;;;;;5060808;28;20596;-76
2022/11/04 02:46:36;;;;;;;12.73;10.68;;;10.30;99.90;;;;;;5061620;28;20221;-76
2022/11/04 02:49:12;;;;;;;14.10;10.68;;;10.30;99.90;;;;;;5064440;28;20180;-76
2022/11/04 02:52:07;;;;;;;12.48;10.48;;;10.30;99.90;;;;;;5066743;28;20209;-76
2022/11/04 02:54:47;;;;;;;11.05;9.65;;;10.30;99.90;;;;;;5062045;28;20175;-75
2022/11/04 02:57:27;;;;;;;11.82;9.88;;;10.20;99.90;;;;;;5057611;28;20195;-75
2022/11/04 02:59:58;;;;;;;13.95;10.93;;;10.30;99.90;;;;;;5060154;28;20167;-75
2022/11/04 03:02:32;;;;;;;9.65;8.65;;;10.30;99.90;;;;;;5057386;28;20611;-76
2022/11/04 03:04:59;;;;;;;18.67;10.82;;;10.30;99.90;;;;;;5066786;28;20170;-76
2022/11/04 03:07:30;;;;;;;11.63;10.18;;;10.30;99.90;;;;;;5070995;28;20229;-75
2022/11/04 03:10:02;;;;;;;11.70;9.05;;;10.30;99.90;;;;;;5075235;28;20257;-75
2022/11/04 03:12:37;;;;;;;10.18;8.25;;;10.20;99.90;;;;;;5068820;28;20180;-75
2022/11/04 03:15:08;;;;;;;12.30;8.10;;;10.10;99.90;;;;;;5069561;28;20234;-75
2022/11/04 03:17:49;;;;;;;14.05;8.50;;;10.00;99.90;;;;;;5071218;28;20209;-75
2022/11/04 03:20:22;;;;;;;9.93;8.38;;;10.10;99.90;;;;;;5059140;28;20684;-75
2022/11/04 03:22:48;;;;;;;8.02;6.93;;;10.10;99.90;;;;;;5060799;28;20575;-75
2022/11/04 03:25:14;;;;;;;8.35;7.53;;;10.10;99.90;;;;;;5066590;28;20210;-75
2022/11/04 03:27:48;;;;;;;8.38;7.47;;;10.10;99.90;;;;;;5067511;28;20587;-74
2022/11/04 03:30:17;;;;;;;8.60;7.68;;;10.10;99.90;;;;;;5067527;28;20185;-74
2022/11/04 03:32:46;;;;;;;10.27;7.57;;;10.20;99.90;;;;;;5063359;28;20183;-75
2022/11/04 03:35:15;;;;;;;9.73;6.53;;;10.10;99.90;;;;;;5067238;28;20248;-76
2022/11/04 03:37:41;;;;;;;6.55;5.95;;;10.20;99.90;;;;;;5068853;28;20195;-76
2022/11/04 03:40:08;;;;;;;6.70;6.10;;;10.10;99.90;;;;;;5069751;28;20180;-75
2022/11/04 03:42:39;;;;;;;7.03;6.32;;;10.00;99.90;;;;;;5066775;28;20281;-75
2022/11/04 03:45:05;;;;;;;8.30;6.72;;;10.00;99.90;;;;;;5071039;28;20187;-74
2022/11/04 03:47:31;;;;;;;8.07;6.38;;;10.00;99.90;;;;;;5068204;28;20685;-74
2022/11/04 03:50:04;;;;;;;7.10;5.43;;;10.00;99.90;;;;;;5069746;28;20183;-74
2022/11/04 03:52:30;;;;;;;8.82;5.82;;;10.00;99.90;;;;;;5067745;28;20193;-75
2022/11/04 03:54:55;;;;;;;8.27;5.25;;;9.90;99.90;;;;;;5069934;28;20665;-75
2022/11/04 03:57:39;;;;;;;6.20;5.60;;;9.90;99.90;;;;;;5072865;28;20627;-74
2022/11/04 04:00:09;;;;;;;5.32;4.82;;;9.90;99.90;;;;;;5074468;28;20182;-76
2022/11/04 04:02:40;;;;;;;5.35;4.85;;;9.90;99.90;;;;;;5068726;28;20573;-76
2022/11/04 04:05:33;;;;;;;6.00;4.63;;;9.80;99.90;;;;;;5068639;28;20700;-74
2022/11/04 04:08:30;;;;;;;5.43;4.93;;;9.70;99.90;;;;;;5066515;28;20230;-75
2022/11/04 04:11:20;;;;;;;5.80;4.90;;;9.80;99.90;;;;;;5073318;28;20183;-75
2022/11/04 04:13:51;;;;;;;5.97;5.20;;;9.90;99.90;;;;;;5063178;28;20283;-74
2022/11/04 04:16:29;;;;;;;7.70;6.82;;;10.00;99.90;;;;;;5065017;28;20275;-75
2022/11/04 04:19:07;;;;;;;9.65;8.75;;;9.90;99.90;;;;;;5069166;28;20275;-75
2022/11/04 04:21:41;;;;;;;8.50;7.50;;;10.00;99.90;;;;;;5064659;28;20183;-74
2022/11/04 04:29:41;;;;;;;7.45;6.75;;;9.80;99.90;;;;;;5064691;28;20679;-74
2022/11/04 04:32:08;;;;;;;6.38;5.32;;;9.80;99.90;;;;;;5065881;28;20180;-74
2022/11/04 04:34:33;;;;;;;6.47;5.88;;;9.80;99.90;;;;;;5069351;28;20182;-75
2022/11/04 04:37:02;;;;;;;6.22;5.55;;;9.70;99.90;;;;;;5066533;28;20225;-75
2022/11/04 04:45:40;;;;;;;5.70;5.20;;;9.70;99.90;;;;;;5063731;28;20631;-74
2022/11/04 04:48:08;;;;;;;6.93;6.10;;;9.70;99.90;;;;;;5062956;28;20735;-75
2022/11/04 04:50:38;;;;;;;5.38;4.97;;;9.70;99.90;;;;;;5066605;28;20643;-74
2022/11/04 04:53:03;;;;;;;5.15;4.50;;;9.70;99.90;;;;;;5069306;28;20538;-76
2022/11/04 04:55:32;;;;;;;5.90;5.28;;;9.70;99.90;;;;;;5062015;28;20186;-75
2022/11/04 04:57:58;;;;;;;5.22;4.75;;;9.70;99.90;;;;;;5072110;28;20201;-75
2022/11/04 05:00:25;;;;;;;5.43;4.93;;;9.60;99.90;;;;;;5060000;28;20550;-74
2022/11/04 05:02:50;;;;;;;6.15;5.50;;;9.60;99.90;;;;;;5067882;28;20214;-76
2022/11/04 05:05:17;;;;;;;5.70;5.10;;;9.60;99.90;;;;;;5068168;28;20658;-76
2022/11/04 05:07:42;;;;;;;5.18;4.78;;;9.60;99.90;;;;;;5071519;28;20741;-76
2022/11/04 05:10:10;;;;;;;6.15;5.00;;;9.60;99.90;;;;;;5060133;28;20179;-75
2022/11/04 05:15:22;;;;;;;7.10;4.63;;;9.70;99.90;;;;;;5070400;28;20194;-75
2022/11/04 05:17:52;;;;;;;5.18;4.72;;;9.70;99.90;;;;;;5072356;28;20202;-75
2022/11/04 05:20:17;;;;;;;5.63;4.90;;;9.70;99.90;;;;;;5067624;28;20314;-75
2022/11/04 05:22:43;;;;;;;6.85;5.30;;;9.60;99.90;;;;;;5067805;28;20301;-75
2022/11/04 05:25:08;;;;;;;5.97;5.15;;;9.60;99.90;;;;;;5064883;28;20167;-75
2022/11/04 05:27:34;;;;;;;5.45;5.00;;;9.60;99.90;;;;;;5068105;28;20202;-76
2022/11/04 05:30:00;;;;;;;7.20;6.47;;;9.60;99.90;;;;;;5066530;28;20234;-75
2022/11/04 05:32:29;;;;;;;7.13;6.43;;;9.50;99.90;;;;;;5064089;28;20175;-75
2022/11/04 05:34:54;;;;;;;7.22;5.75;;;9.60;99.90;;;;;;5069410;28;20176;-75
2022/11/04 05:37:20;;;;;;;6.60;6.10;;;9.60;99.90;;;;;;5064880;28;20214;-75
2022/11/04 05:39:45;;;;;;;6.43;5.63;;;9.60;99.90;;;;;;5069853;28;20648;-75
2022/11/04 05:42:11;;;;;;;7.25;6.53;;;9.50;99.90;;;;;;5069721;28;20238;-75
2022/11/04 05:44:36;;;;;;;7.65;6.47;;;9.40;99.90;;;;;;5069629;28;20194;-75
2022/11/04 05:47:02;;;;;;;9.77;7.03;;;9.40;99.90;;;;;;5069168;28;20222;-74
2022/11/04 05:49:28;;;;;;;6.93;6.32;;;9.50;99.90;;;;;;5065356;28;20175;-75
2022/11/04 05:51:53;;;;;;;6.55;5.88;;;9.60;99.90;;;;;;5067539;28;20254;-74
2022/11/04 05:54:19;;;;;;;8.23;6.07;;;9.60;99.90;;;;;;5066994;28;20171;-75
2022/11/04 05:56:44;;;;;;;7.35;6.22;;;9.60;99.90;;;;;;5071381;28;20198;-76
2022/11/04 05:59:10;;;;;;;7.30;6.32;;;9.60;99.90;;;;;;5065212;28;20206;-75
2022/11/04 06:01:38;;;;;;;10.00;6.10;;;9.50;99.90;;;;;;5063395;28;20719;-75
2022/11/04 06:04:04;;;;;;;8.05;5.85;;;9.60;99.90;;;;;;5059847;28;20199;-75
2022/11/04 06:06:34;;;;;;;7.78;7.03;;;9.60;99.90;;;;;;5069667;28;20280;-75
2022/11/04 06:09:00;;;;;;;14.30;7.05;;;9.50;99.90;;;;;;5066248;28;20256;-75
2022/11/04 06:11:28;;;;;;;8.52;6.30;;;9.60;99.90;;;;;;5068098;28;20194;-76
2022/11/04 06:13:55;;;;;;;8.20;6.45;;;9.70;99.90;;;;;;5080194;28;20189;-75
2022/11/04 06:16:21;;;;;;;6.72;6.13;;;9.70;99.90;;;;;;5066564;28;20210;-75
2022/11/04 06:18:46;;;;;;;7.07;6.38;;;9.80;99.90;;;;;;5066365;28;20176;-75
2022/11/04 06:21:12;;;;;;;8.43;6.85;;;9.80;99.90;;;;;;5067633;28;20175;-74
2022/11/04 06:23:38;;;;;;;8.77;6.15;;;9.70;99.90;;;;;;5066548;28;20283;-74
2022/11/04 06:26:04;;;;;;;6.80;6.10;;;9.70;99.90;;;;;;5060814;28;20199;-74
2022/11/04 06:28:30;;;;;;;6.82;6.18;;;9.80;99.90;;;;;;5062720;28;20208;-75
2022/11/04 06:31:01;;;;;;;6.63;5.93;;;9.90;99.90;;;;;;5069602;28;20177;-75
2022/11/04 06:33:28;;;;;;;7.75;6.28;;;9.80;99.90;;;;;;5066675;28;20203;-75
2022/11/04 06:35:58;;;;;;;6.32;5.72;;;9.80;99.90;;;;;;5065173;28;20189;-75
2022/11/04 06:38:24;;;;;;;5.78;5.28;;;9.80;99.90;;;;;;5069347;28;20202;-75
2022/11/04 06:40:50;;;;;;;5.88;5.28;;;9.80;99.90;;;;;;5061208;28;20662;-75
2022/11/04 06:43:15;;;;;;;7.07;6.38;;;9.70;99.90;;;;;;5060773;28;20250;-75
2022/11/04 06:45:41;;;;;;;7.85;6.45;;;9.80;99.90;;;;;;5068193;28;20183;-75
2022/11/04 06:48:06;;;;;;;6.32;5.60;;;9.90;99.90;;;;;;5060565;28;20203;-75
2022/11/04 06:50:33;;;;;;;7.60;6.53;;;9.70;99.90;;;;;;5060892;28;20186;-75
2022/11/04 06:52:58;;;;;;;7.63;6.13;;;9.80;99.90;;;;;;5062297;28;20260;-74
2022/11/04 06:55:24;;;;;;;7.20;6.28;;;9.80;99.90;;;;;;5064201;28;20270;-75
2022/11/04 06:57:50;;;;;;;10.32;7.32;;;9.80;99.90;;;;;;5070011;28;20194;-74
2022/11/04 07:00:16;;;;;;;8.18;5.70;;;9.70;99.90;;;;;;5066829;28;20194;-73
2022/11/04 07:02:42;;;;;;;6.35;5.70;;;9.60;99.90;;;;;;5057977;28;20206;-74
2022/11/04 07:05:08;;;;;;;6.18;5.57;;;9.60;99.90;;;;;;5059395;28;20176;-74
2022/11/04 07:07:34;;;;;;;6.53;5.80;;;9.70;99.90;;;;;;5058465;28;20195;-74
2022/11/04 07:09:59;;;;;;;6.28;5.15;;;9.70;99.90;;;;;;5064369;28;20243;-75
2022/11/04 07:12:25;;;;;;;4.82;4.43;;;9.70;99.90;;;;;;5060288;28;20265;-74
2022/11/04 07:14:51;;;;;;;6.10;5.50;;;9.80;99.90;;;;;;5062280;28;20588;-74
2022/11/04 07:17:16;;;;;;;5.90;5.30;;;9.90;99.90;;;;;;5060075;28;20244;-75
2022/11/04 07:19:42;;;;;;;6.70;5.35;;;9.90;99.90;;;;;;5061936;28;20306;-74
2022/11/04 07:22:08;;;;;;;6.30;4.65;;;9.80;99.90;;;;;;5063027;28;20738;-74
2022/11/04 07:24:34;;;;;;;6.75;4.90;;;9.80;99.90;;;;;;5069672;28;20252;-75
2022/11/04 07:26:59;;;;;;;5.05;3.88;;;9.80;99.90;;;;;;5063931;28;20206;-74
2022/11/04 07:29:25;;;;;;;5.10;3.63;;;9.80;99.90;;;;;;5065681;28;20262;-76
2022/11/04 07:31:51;;;;;;;3.78;3.47;;;9.80;99.90;;;;;;5066087;28;20197;-75
2022/11/04 07:34:16;;;;;;;4.30;3.90;;;9.70;99.90;;;;;;5068824;28;20195;-77
2022/11/04 07:36:42;;;;;;;4.35;3.95;;;9.80;99.90;;;;;;5068165;28;20575;-74
2022/11/04 07:39:07;;;;;;;4.22;3.92;;;9.80;99.90;;;;;;5071924;28;20256;-74
2022/11/04 07:41:33;;;;;;;4.47;4.07;;;9.80;99.90;;;;;;5071406;28;20188;-74
2022/11/04 07:44:00;;;;;;;6.15;4.18;;;9.80;99.90;;;;;;5064052;28;20202;-74
2022/11/04 07:46:26;;;;;;;5.45;3.90;;;9.80;99.90;;;;;;5064044;28;20203;-74
2022/11/04 07:48:51;;;;;;;5.95;4.72;;;9.90;99.90;;;;;;5070884;28;20220;-74
2022/11/04 07:51:19;;;;;;;7.35;4.13;;;9.90;99.90;;;;;;5068076;28;20207;-74
2022/11/04 07:53:45;;;;;;;4.03;3.72;;;9.90;99.90;;;;;;5068127;28;20179;-75
2022/11/04 07:56:12;;;;;;;5.07;3.08;;;9.90;99.90;;;;;;5072987;28;20203;-75
2022/11/04 07:58:38;;;;;;;6.63;4.28;;;10.00;99.90;;;;;;5071464;28;20172;-75
2022/11/04 08:01:11;;;;;;;3.33;2.90;;;10.00;99.90;;;;;;5066533;28;20759;-74
2022/11/04 08:03:37;;;;;;;2.58;2.35;;;10.00;99.90;;;;;;5064491;28;20218;-74
2022/11/04 08:06:04;;;;;;;2.90;2.40;;;10.00;99.90;;;;;;5065140;28;20176;-74
2022/11/04 08:08:30;;;;;;;2.70;2.50;;;10.00;99.90;;;;;;5066112;28;20266;-74
2022/11/04 08:11:03;;;;;;;2.70;2.30;;;10.10;99.90;;;;;;5067313;28;20579;-75
2022/11/04 08:13:30;;;;;;;2.88;2.28;;;10.10;99.90;;;;;;5066988;28;20353;-74
2022/11/04 08:15:59;;;;;;;2.20;2.10;;;10.10;99.90;;;;;;5065509;28;20183;-76
2022/11/04 08:18:25;;;;;;;2.28;2.15;;;10.20;99.90;;;;;;5063513;28;20680;-74
2022/11/04 08:20:51;;;;;;;3.63;2.58;;;10.10;99.90;;;;;;5066675;28;20218;-74
2022/11/04 08:23:17;;;;;;;2.67;1.98;;;10.20;99.90;;;;;;5063390;28;20256;-74
2022/11/04 08:25:43;;;;;;;2.88;2.25;;;10.10;99.90;;;;;;5064793;28;20576;-74
2022/11/04 08:28:15;;;;;;;2.13;2.03;;;10.20;99.90;;;;;;5069735;28;20237;-74
2022/11/04 08:31:01;;;;;;;3.20;2.10;;;10.20;99.90;;;;;;5066499;28;20172;-73
2022/11/04 08:33:28;;;;;;;2.92;2.28;;;10.20;99.90;;;;;;5058955;28;20195;-74
2022/11/04 08:35:58;;;;;;;2.00;1.90;;;10.00;99.90;;;;;;5066856;28;20677;-73
2022/11/04 08:38:24;;;;;;;1.80;1.70;;;10.00;99.90;;;;;;5064364;28;20187;-73
2022/11/04 08:40:49;;;;;;;1.92;1.83;;;10.10;99.90;;;;;;5066606;28;20187;-73
2022/11/04 08:43:15;;;;;;;2.70;1.90;;;10.20;99.90;;;;;;5066631;28;20199;-74
2022/11/04 08:45:44;;;;;;;1.75;1.58;;;10.20;99.90;;;;;;5073053;28;20187;-74
2022/11/04 08:48:09;;;;;;;2.00;1.90;;;10.20;99.90;;;;;;5057042;28;20198;-74
2022/11/04 08:50:35;;;;;;;2.40;2.20;;;10.30;99.90;;;;;;5059108;28;20196;-74
2022/11/04 08:53:01;;;;;;;3.00;1.88;;;10.40;99.90;;;;;;5062338;28;20772;-74
2022/11/04 08:55:31;;;;;;;2.30;1.80;;;10.50;99.90;;;;;;5063176;28;20218;-73
2022/11/04 08:57:57;;;;;;;2.90;2.40;;;10.70;99.90;;;;;;5062502;28;20226;-75
2022/11/04 09:00:23;;;;;;;3.10;1.75;;;10.90;99.90;;;;;;5062328;28;20570;-76
2022/11/04 09:02:48;;;;;;;3.33;2.00;;;11.00;99.90;;;;;;5060097;28;20206;-78
2022/11/04 09:05:14;;;;;;;2.40;2.20;;;11.20;99.90;;;;;;5058824;28;20270;-76
2022/11/04 09:07:41;;;;;;;3.95;1.80;;;11.20;99.90;;;;;;5067281;28;20228;-74
2022/11/04 09:10:08;;;;;;;3.35;1.83;;;11.30;99.90;;;;;;5062311;28;20725;-74
2022/11/04 09:12:34;;;;;;;2.72;1.80;;;11.40;99.90;;;;;;5063292;28;20598;-75
2022/11/04 09:15:00;;;;;;;2.10;1.75;;;11.50;99.90;;;;;;5062085;28;20187;-74
2022/11/04 09:17:26;;;;;;;1.75;1.65;;;11.40;99.90;;;;;;5062640;28;20602;-75
2022/11/04 09:19:52;;;;;;;1.80;1.70;;;11.40;99.90;;;;;;5069493;28;20234;-75
2022/11/04 09:22:18;;;;;;;2.10;1.50;;;11.40;99.90;;;;;;5060512;28;20306;-74
2022/11/04 09:24:43;;;;;;;3.83;1.77;;;11.40;99.90;;;;;;5064930;28;20171;-75
2022/11/04 09:27:09;;;;;;;2.00;1.90;;;11.40;99.90;;;;;;5062422;28;20198;-73
2022/11/04 09:29:35;;;;;;;1.83;1.73;;;11.60;99.90;;;;;;5072113;28;20187;-73
2022/11/04 09:32:02;;;;;;;3.60;1.90;;;11.80;99.90;;;;;;5071821;28;20182;-73
2022/11/04 09:34:27;;;;;;;2.63;2.38;;;11.90;99.90;;;;;;5067190;28;20639;-73
2022/11/04 09:36:56;;;;;;;2.92;2.05;;;12.20;99.90;;;;;;5065113;28;20205;-73
2022/11/04 09:39:23;;;;;;;1.85;1.70;;;12.50;99.90;;;;;;5071203;28;20186;-73
2022/11/04 09:42:10;;;;;;;3.45;2.00;;;12.60;99.90;;;;;;5066436;28;20187;-73
2022/11/04 09:44:38;;;;;;;3.10;1.65;;;13.00;99.90;;;;;;5064796;28;20203;-73
2022/11/04 09:47:07;;;;;;;1.77;1.30;;;13.10;99.90;;;;;;5067651;28;20572;-73
2022/11/04 09:49:38;;;;;;;3.67;1.70;;;13.30;99.90;;;;;;5065460;28;20588;-73
2022/11/04 09:52:24;;;;;;;1.50;1.40;;;13.20;99.90;;;;;;5066026;28;20642;-74
2022/11/04 09:55:17;;;;;;;3.40;1.58;;;13.30;99.90;;;;;;5066682;28;20642;-73
2022/11/04 09:57:43;;;;;;;2.55;1.90;;;13.20;99.90;;;;;;5081111;28;20697;-73
2022/11/04 10:00:15;;;;;;;4.43;1.75;;;13.20;99.90;;;;;;5066902;28;20183;-73
2022/11/04 10:02:52;;;;;;;1.30;1.20;;;13.20;99.90;;;;;;5070720;28;20657;-73
2022/11/04 10:05:35;;;;;;;1.45;1.40;;;13.10;99.90;;;;;;5064560;28;20219;-74
2022/11/04 10:08:24;;;;;;;1.67;1.58;;;13.00;99.90;;;;;;5070862;28;20191;-73
2022/11/04 10:11:14;;;;;;;2.95;1.70;;;12.80;99.90;;;;;;5072799;28;20695;-73
2022/11/04 10:14:35;;;;;;;4.93;1.83;;;12.60;99.90;;;;;;5071159;28;20191;-73
2022/11/04 10:17:16;;;;;;;4.13;1.77;;;12.30;99.90;;;;;;5030641;28;20208;-73
2022/11/04 10:19:51;;;;;;;1.63;1.52;;;12.10;99.90;;;;;;5070017;28;20549;-73
2022/11/04 10:22:38;;;;;;;2.08;1.88;;;12.10;99.90;;;;;;5070141;28;20206;-73
2022/11/04 10:25:20;;;;;;;2.95;1.65;;;12.10;99.90;;;;;;5063255;28;20233;-74
2022/11/04 10:27:47;;;;;;;3.60;2.30;;;12.00;99.90;;;;;;5063032;28;20195;-75
2022/11/04 10:30:19;;;;;;;2.42;1.88;;;12.00;99.90;;;;;;5068019;28;20176;-73
2022/11/04 10:33:10;;;;;;;1.88;1.77;;;12.20;99.90;;;;;;5068730;28;20704;-73
2022/11/04 10:35:47;;;;;;;2.85;2.30;;;12.40;99.90;;;;;;5066662;28;20184;-73
2022/11/04 10:38:36;;;;;;;5.03;1.90;;;12.70;99.90;;;;;;5064921;28;20662;-74
2022/11/04 10:41:25;;;;;;;2.28;1.92;;;13.00;99.90;;;;;;5065454;28;20209;-74
2022/11/04 10:43:55;;;;;;;5.18;1.70;;;13.30;99.90;;;;;;5061637;28;20621;-73
2022/11/04 10:46:29;;;;;;;1.63;1.52;;;13.60;99.90;;;;;;5070208;28;20219;-75
2022/11/04 10:49:25;;;;;;;3.30;1.92;;;14.10;99.90;;;;;;5065114;28;20175;-73
2022/11/04 10:51:51;;;;;;;4.40;2.05;;;14.40;99.90;;;;;;5068395;28;20186;-73
2022/11/04 10:54:17;;;;;;;2.75;1.67;;;14.40;99.90;;;;;;5068502;28;20179;-74
2022/11/04 10:56:54;;;;;;;3.95;2.33;;;14.20;99.90;;;;;;5065300;28;20618;-74
2022/11/04 10:59:31;;;;;;;1.73;1.58;;;14.10;99.90;;;;;;5065895;28;20179;-73
2022/11/04 11:01:59;;;;;;;2.42;1.95;;;14.00;99.90;;;;;;5064634;28;20206;-73
2022/11/04 11:04:26;;;;;;;3.63;1.70;;;13.80;99.90;;;;;;5059848;28;20206;-74
2022/11/04 11:06:54;;;;;;;1.98;1.85;;;13.50;99.90;;;;;;5072840;28;20229;-73
2022/11/04 11:09:27;;;;;;;1.80;1.63;;;13.30;99.90;;;;;;5065310;28;20179;-73
2022/11/04 11:11:58;;;;;;;3.17;1.88;;;13.10;99.90;;;;;;5066300;28;20183;-74
2022/11/04 11:14:27;;;;;;;2.28;2.00;;;12.90;99.90;;;;;;5066586;28;20207;-74
2022/11/04 11:16:53;;;;;;;3.92;2.10;;;12.80;99.90;;;;;;5071548;28;20199;-73
2022/11/04 11:19:21;;;;;;;2.90;2.45;;;12.90;99.90;;;;;;5072360;28;20634;-73
2022/11/04 11:21:52;;;;;;;2.40;2.17;;;12.90;99.90;;;;;;5073918;28;20571;-73
2022/11/04 11:24:26;;;;;;;3.50;2.42;;;12.90;99.90;;;;;;5063687;28;20208;-74
2022/11/04 11:26:57;;;;;;;3.45;2.40;;;12.90;99.90;;;;;;5069998;28;20193;-73
2022/11/04 11:29:41;;;;;;;4.18;2.47;;;12.90;99.90;;;;;;5062712;28;20650;-73
2022/11/04 11:32:34;;;;;;;4.00;2.50;;;12.90;99.90;;;;;;5066337;28;20175;-73
2022/11/04 11:35:02;;;;;;;2.50;2.05;;;13.00;99.90;;;;;;5062041;28;20697;-74
2022/11/04 11:37:30;;;;;;;2.38;2.10;;;13.20;99.90;;;;;;5067298;28;20567;-74
2022/11/04 11:39:56;;;;;;;2.72;2.30;;;13.20;99.90;;;;;;5061366;28;20536;-73
2022/11/04 11:42:22;;;;;;;2.70;2.50;;;13.00;99.90;;;;;;5064518;28;20313;-76
2022/11/04 11:44:52;;;;;;;2.10;2.00;;;13.00;99.90;;;;;;5064616;28;20667;-74
2022/11/04 11:47:29;;;;;;;2.55;2.35;;;12.90;99.90;;;;;;5069122;28;20569;-73
2022/11/04 11:50:28;;;;;;;4.47;2.75;;;12.80;99.90;;;;;;5069940;28;20179;-74
2022/11/04 11:53:13;;;;;;;2.28;2.03;;;12.60;99.90;;;;;;5062226;28;20549;-75
2022/11/04 11:55:53;;;;;;;2.70;2.25;;;12.20;99.90;;;;;;5067158;28;20183;-74
2022/11/04 11:58:30;;;;;;;2.97;2.55;;;12.00;99.90;;;;;;5067771;28;20654;-75
2022/11/04 12:01:15;;;;;;;3.35;2.10;;;11.80;99.90;;;;;;5059323;28;20191;-73
2022/11/04 12:03:48;;;;;;;2.90;2.40;;;11.70;99.90;;;;;;5071415;28;20695;-73
2022/11/04 12:06:35;;;;;;;7.55;2.60;;;11.50;99.90;;;;;;5066176;28;20204;-73
2022/11/04 12:09:32;;;;;;;3.92;2.17;;;11.60;99.90;;;;;;5064214;28;20186;-74
2022/11/04 12:12:19;;;;;;;2.90;2.10;;;11.60;99.90;;;;;;5061347;28;20607;-74
2022/11/04 12:14:57;;;;;;;2.78;2.28;;;11.50;99.90;;;;;;5073550;28;20175;-75
2022/11/04 12:17:28;;;;;;;2.42;2.22;;;11.50;99.90;;;;;;5064337;28;20196;-73
2022/11/04 12:20:27;;;;;;;2.67;1.85;;;11.40;99.90;;;;;;5070423;28;20172;-74
2022/11/04 12:23:41;;;;;;;1.98;1.77;;;11.50;99.90;;;;;;5076521;28;20207;-75
2022/11/04 12:26:42;;;;;;;5.30;2.33;;;11.40;99.90;;;;;;5057615;28;20252;-75
2022/11/04 12:29:28;;;;;;;2.28;2.08;;;11.20;99.90;;;;;;5060732;28;20600;-73
2022/11/04 12:32:17;;;;;;;4.63;2.38;;;11.10;99.90;;;;;;5068030;28;20261;-73
2022/11/04 12:34:58;;;;;;;3.55;2.10;;;10.90;99.90;;;;;;5052940;28;20187;-73
2022/11/04 12:37:32;;;;;;;3.08;2.20;;;10.80;99.90;;;;;;5062781;28;20226;-74
2022/11/04 12:40:17;;;;;;;2.80;2.13;;;10.60;99.90;;;;;;5069147;28;20654;-76
2022/11/04 12:43:04;;;;;;;3.33;2.20;;;10.60;99.90;;;;;;5070309;28;20196;-73
2022/11/04 12:45:44;;;;;;;2.10;2.00;;;10.40;99.90;;;;;;5074084;28;20723;-77
2022/11/04 12:48:23;;;;;;;2.33;2.05;;;10.20;99.90;;;;;;5070705;28;20199;-74
2022/11/04 12:51:02;;;;;;;3.50;2.10;;;10.20;99.90;;;;;;5067678;28;20594;-74
2022/11/04 12:53:34;;;;;;;5.63;2.60;;;10.20;99.90;;;;;;5065997;28;20184;-75
2022/11/04 12:56:13;;;;;;;4.57;2.60;;;10.10;99.90;;;;;;5066086;28;20208;-73
2022/11/04 12:58:57;;;;;;;4.45;2.97;;;10.10;99.90;;;;;;5062742;28;20183;-73
2022/11/04 13:01:45;;;;;;;4.90;2.42;;;10.00;99.90;;;;;;5060362;28;20180;-73
2022/11/04 13:04:23;;;;;;;4.60;2.70;;;10.00;99.90;;;;;;5060007;28;20295;-73
2022/11/04 13:07:10;;;;;;;2.80;2.60;;;9.90;99.90;;;;;;5063268;28;20566;-74
2022/11/04 13:09:42;;;;;;;6.07;2.90;;;9.70;99.90;;;;;;5059887;28;20179;-73
2022/11/04 13:12:16;;;;;;;3.75;3.15;;;9.80;99.90;;;;;;5062552;28;20241;-73
2022/11/04 13:14:51;;;;;;;3.42;2.90;;;9.80;99.90;;;;;;5064558;28;20179;-73
2022/11/04 13:17:38;;;;;;;6.10;3.75;;;9.80;99.90;;;;;;5065167;28;20191;-73
2022/11/04 13:20:12;;;;;;;3.95;3.47;;;9.70;99.90;;;;;;5055020;28;20172;-73
2022/11/04 13:22:45;;;;;;;5.88;3.65;;;9.70;99.90;;;;;;5062612;28;20204;-73
2022/11/04 13:25:33;;;;;;;6.43;3.83;;;9.70;99.90;;;;;;5066557;28;20201;-74
2022/11/04 13:28:01;;;;;;;5.95;4.68;;;9.70;99.90;;;;;;5063251;28;20194;-74
2022/11/04 13:30:43;;;;;;;7.22;4.50;;;9.70;99.90;;;;;;5067831;28;20650;-73
2022/11/04 13:33:15;;;;;;;5.78;4.60;;;9.60;99.90;;;;;;5067055;28;20203;-74
2022/11/04 13:36:23;;;;;;;5.82;4.00;;;9.70;99.90;;;;;;5062041;28;20176;-75
2022/11/04 13:38:55;;;;;;;4.45;3.97;;;9.70;99.90;;;;;;5051003;28;20198;-74
2022/11/04 13:41:38;;;;;;;6.32;4.28;;;9.70;99.90;;;;;;5064616;28;20188;-72
2022/11/04 13:44:13;;;;;;;5.75;3.75;;;9.70;99.90;;;;;;5061799;28;20289;-73